sensor_id;sensor_type;location;lat;lon;timestamp;pressure;altitude;pressure_sealevel;temperature;humidity
75938;BME280;64615;32.062;34.834;2023-07-13T00:01:51;100571.03;;;27.80;63.61
75938;BME280;64615;32.062;34.834;2023-07-13T00:04:22;100570.16;;;27.85;63.53
75938;BME280;64615;32.062;34.834;2023-07-13T00:06:48;100564.91;;;27.88;63.30
75938;BME280;64615;32.062;34.834;2023-07-13T00:09:16;100562.69;;;27.90;63.18
75938;BME280;64615;32.062;34.834;2023-07-13T00:11:43;100566.75;;;27.93;63.26
75938;BME280;64615;32.062;34.834;2023-07-13T00:14:09;100568.97;;;27.91;63.33
75938;BME280;64615;32.062;34.834;2023-07-13T00:16:38;100559.94;;;27.90;63.33
75938;BME280;64615;32.062;34.834;2023-07-13T00:19:05;100566.53;;;27.89;63.40
75938;BME280;64615;32.062;34.834;2023-07-13T00:21:31;100561.06;;;27.89;63.29
75938;BME280;64615;32.062;34.834;2023-07-13T00:23:57;100561.06;;;27.89;63.51
75938;BME280;64615;32.062;34.834;2023-07-13T00:26:23;100564.31;;;27.91;63.39
75938;BME280;64615;32.062;34.834;2023-07-13T00:28:49;100558.34;;;27.89;63.24
75938;BME280;64615;32.062;34.834;2023-07-13T00:31:15;100552.63;;;27.86;63.33
75938;BME280;64615;32.062;34.834;2023-07-13T00:33:41;100554.06;;;27.83;63.56
75938;BME280;64615;32.062;34.834;2023-07-13T00:36:08;100552.63;;;27.86;63.51
75938;BME280;64615;32.062;34.834;2023-07-13T00:38:33;100552.34;;;27.87;63.43
75938;BME280;64615;32.062;34.834;2023-07-13T00:40:59;100549.31;;;27.89;63.33
75938;BME280;64615;32.062;34.834;2023-07-13T00:43:27;100554.25;;;27.87;63.32
75938;BME280;64615;32.062;34.834;2023-07-13T00:48:21;100562.25;;;27.83;63.37
75938;BME280;64615;32.062;34.834;2023-07-13T00:50:52;100561.16;;;27.84;63.48
75938;BME280;64615;32.062;34.834;2023-07-13T00:53:19;100555.69;;;27.84;63.49
75938;BME280;64615;32.062;34.834;2023-07-13T00:55:47;100549.91;;;27.86;63.41
75938;BME280;64615;32.062;34.834;2023-07-13T00:58:14;100542.50;;;27.86;63.42
75938;BME280;64615;32.062;34.834;2023-07-13T01:00:40;100551.00;;;27.85;63.75
75938;BME280;64615;32.062;34.834;2023-07-13T01:03:06;100542.28;;;27.83;63.35
75938;BME280;64615;32.062;34.834;2023-07-13T01:05:33;100551.59;;;27.81;63.50
75938;BME280;64615;32.062;34.834;2023-07-13T01:08:00;100546.13;;;27.81;63.53
75938;BME280;64615;32.062;34.834;2023-07-13T01:10:27;100544.41;;;27.86;63.34
75938;BME280;64615;32.062;34.834;2023-07-13T01:12:53;100545.75;;;27.88;62.94
75938;BME280;64615;32.062;34.834;2023-07-13T01:15:48;100548.72;;;27.92;63.17
75938;BME280;64615;32.062;34.834;2023-07-13T01:18:19;100539.19;;;27.89;63.07
75938;BME280;64615;32.062;34.834;2023-07-13T01:21:00;100550.72;;;27.86;63.22
75938;BME280;64615;32.062;34.834;2023-07-13T01:23:26;100557.06;;;27.81;63.20
75938;BME280;64615;32.062;34.834;2023-07-13T01:25:52;100553.53;;;27.81;63.30
75938;BME280;64615;32.062;34.834;2023-07-13T01:28:19;100543.69;;;27.80;63.43
75938;BME280;64615;32.062;34.834;2023-07-13T01:30:45;100546.75;;;27.78;63.35
75938;BME280;64615;32.062;34.834;2023-07-13T01:33:16;100547.56;;;27.79;63.36
75938;BME280;64615;32.062;34.834;2023-07-13T01:35:43;100557.97;;;27.77;63.26
75938;BME280;64615;32.062;34.834;2023-07-13T01:38:10;100552.78;;;27.75;63.47
75938;BME280;64615;32.062;34.834;2023-07-13T01:40:37;100551.16;;;27.74;63.32
75938;BME280;64615;32.062;34.834;2023-07-13T01:43:03;100548.13;;;27.76;63.42
75938;BME280;64615;32.062;34.834;2023-07-13T01:45:28;100541.84;;;27.75;63.26
75938;BME280;64615;32.062;34.834;2023-07-13T01:47:54;100554.41;;;27.76;63.45
75938;BME280;64615;32.062;34.834;2023-07-13T01:50:20;100547.03;;;27.77;63.28
75938;BME280;64615;32.062;34.834;2023-07-13T01:52:46;100537.72;;;27.78;63.44
75938;BME280;64615;32.062;34.834;2023-07-13T01:55:11;100541.28;;;27.78;63.09
75938;BME280;64615;32.062;34.834;2023-07-13T01:57:37;100542.59;;;27.81;63.06
75938;BME280;64615;32.062;34.834;2023-07-13T02:00:05;100546.94;;;27.82;63.18
75938;BME280;64615;32.062;34.834;2023-07-13T02:02:31;100544.50;;;27.80;63.08
75938;BME280;64615;32.062;34.834;2023-07-13T02:04:56;100540.38;;;27.83;63.08
75938;BME280;64615;32.062;34.834;2023-07-13T02:07:22;100531.84;;;27.85;63.10
75938;BME280;64615;32.062;34.834;2023-07-13T02:09:48;100545.84;;;27.83;63.13
75938;BME280;64615;32.062;34.834;2023-07-13T02:12:13;100542.59;;;27.81;63.02
75938;BME280;64615;32.062;34.834;2023-07-13T02:14:39;100539.84;;;27.81;63.12
75938;BME280;64615;32.062;34.834;2023-07-13T02:17:05;100552.41;;;27.82;63.22
75938;BME280;64615;32.062;34.834;2023-07-13T02:19:31;100549.69;;;27.82;63.22
75938;BME280;64615;32.062;34.834;2023-07-13T02:21:57;100548.06;;;27.81;63.23
75938;BME280;64615;32.062;34.834;2023-07-13T02:24:23;100558.19;;;27.80;63.37
75938;BME280;64615;32.062;34.834;2023-07-13T02:26:48;100555.16;;;27.82;63.07
75938;BME280;64615;32.062;34.834;2023-07-13T02:29:14;100563.66;;;27.80;63.19
75938;BME280;64615;32.062;34.834;2023-07-13T02:31:40;100561.72;;;27.81;63.05
75938;BME280;64615;32.062;34.834;2023-07-13T02:34:05;100573.19;;;27.83;63.25
75938;BME280;64615;32.062;34.834;2023-07-13T02:36:31;100579.78;;;27.82;63.42
75938;BME280;64615;32.062;34.834;2023-07-13T02:39:02;100566.91;;;27.83;63.35
75938;BME280;64615;32.062;34.834;2023-07-13T02:41:28;100574.84;;;27.84;63.26
75938;BME280;64615;32.062;34.834;2023-07-13T02:43:54;100576.44;;;27.85;63.19
75938;BME280;64615;32.062;34.834;2023-07-13T02:46:22;100580.31;;;27.84;63.52
75938;BME280;64615;32.062;34.834;2023-07-13T02:48:49;100582.72;;;27.86;63.31
75938;BME280;64615;32.062;34.834;2023-07-13T02:51:15;100577.56;;;27.84;63.38
75938;BME280;64615;32.062;34.834;2023-07-13T02:53:40;100585.78;;;27.84;63.17
75938;BME280;64615;32.062;34.834;2023-07-13T02:56:06;100595.91;;;27.84;63.17
75938;BME280;64615;32.062;34.834;2023-07-13T02:58:32;100584.66;;;27.85;63.43
75938;BME280;64615;32.062;34.834;2023-07-13T03:01:07;100586.28;;;27.86;63.40
75938;BME280;64615;32.062;34.834;2023-07-13T03:03:33;100584.66;;;27.85;63.06
75938;BME280;64615;32.062;34.834;2023-07-13T03:06:00;100592.84;;;27.85;63.16
75938;BME280;64615;32.062;34.834;2023-07-13T03:08:27;100592.34;;;27.83;63.23
75938;BME280;64615;32.062;34.834;2023-07-13T03:11:05;100586.56;;;27.85;63.27
75938;BME280;64615;32.062;34.834;2023-07-13T03:13:31;100591.25;;;27.84;63.24
75938;BME280;64615;32.062;34.834;2023-07-13T03:15:56;100598.31;;;27.85;63.62
75938;BME280;64615;32.062;34.834;2023-07-13T03:18:22;100589.00;;;27.86;63.23
75938;BME280;64615;32.062;34.834;2023-07-13T03:20:52;100580.22;;;27.89;63.34
75938;BME280;64615;32.062;34.834;2023-07-13T03:23:18;100578.00;;;27.91;63.34
75938;BME280;64615;32.062;34.834;2023-07-13T03:25:44;100584.56;;;27.90;63.37
75938;BME280;64615;32.062;34.834;2023-07-13T03:28:11;100589.25;;;27.90;63.25
75938;BME280;64615;32.062;34.834;2023-07-13T03:30:37;100583.78;;;27.90;63.05
75938;BME280;64615;32.062;34.834;2023-07-13T03:33:03;100587.63;;;27.89;63.28
75938;BME280;64615;32.062;34.834;2023-07-13T03:35:28;100584.06;;;27.88;63.39
75938;BME280;64615;32.062;34.834;2023-07-13T03:37:54;100580.53;;;27.88;63.19
75938;BME280;64615;32.062;34.834;2023-07-13T03:40:20;100569.56;;;27.88;63.29
75938;BME280;64615;32.062;34.834;2023-07-13T03:42:46;100575.84;;;27.88;63.40
75938;BME280;64615;32.062;34.834;2023-07-13T03:45:12;100575.03;;;27.88;63.30
75938;BME280;64615;32.062;34.834;2023-07-13T03:47:37;100574.75;;;27.89;63.14
75938;BME280;64615;32.062;34.834;2023-07-13T03:50:03;100579.09;;;27.90;63.11
75938;BME280;64615;32.062;34.834;2023-07-13T03:52:29;100579.09;;;27.90;63.05
75938;BME280;64615;32.062;34.834;2023-07-13T03:54:55;100576.88;;;27.92;62.96
75938;BME280;64615;32.062;34.834;2023-07-13T03:57:20;100576.06;;;27.92;63.02
75938;BME280;64615;32.062;34.834;2023-07-13T03:59:46;100586.72;;;27.93;62.96
75938;BME280;64615;32.062;34.834;2023-07-13T04:02:12;100575.50;;;27.95;62.77
75938;BME280;64615;32.062;34.834;2023-07-13T04:04:37;100577.09;;;27.96;62.56
75938;BME280;64615;32.062;34.834;2023-07-13T04:07:06;100576.81;;;27.97;62.77
75938;BME280;64615;32.062;34.834;2023-07-13T04:09:34;100576.81;;;27.97;62.93
75938;BME280;64615;32.062;34.834;2023-07-13T04:11:59;100576.50;;;27.99;62.83
75938;BME280;64615;32.062;34.834;2023-07-13T04:14:25;100581.38;;;28.02;62.80
75938;BME280;64615;32.062;34.834;2023-07-13T04:16:51;100579.47;;;28.02;62.52
75938;BME280;64615;32.062;34.834;2023-07-13T04:19:16;100577.25;;;28.04;62.77
75938;BME280;64615;32.062;34.834;2023-07-13T04:21:42;100577.75;;;28.06;62.54
75938;BME280;64615;32.062;34.834;2023-07-13T04:24:08;100579.38;;;28.07;62.50
75938;BME280;64615;32.062;34.834;2023-07-13T04:26:34;100588.94;;;28.10;62.43
75938;BME280;64615;32.062;34.834;2023-07-13T04:29:01;100592.19;;;28.12;62.44
75938;BME280;64615;32.062;34.834;2023-07-13T04:31:29;100591.34;;;28.11;62.39
75938;BME280;64615;32.062;34.834;2023-07-13T04:33:55;100599.28;;;28.13;62.45
75938;BME280;64615;32.062;34.834;2023-07-13T04:36:21;100600.94;;;28.14;62.43
75938;BME280;64615;32.062;34.834;2023-07-13T04:38:46;100602.56;;;28.15;62.33
75938;BME280;64615;32.062;34.834;2023-07-13T04:41:13;100605.31;;;28.15;62.31
75938;BME280;64615;32.062;34.834;2023-07-13T04:43:40;100608.25;;;28.18;62.12
75938;BME280;64615;32.062;34.834;2023-07-13T04:46:08;100623.28;;;28.21;62.04
75938;BME280;64615;32.062;34.834;2023-07-13T04:48:33;100615.25;;;28.25;62.10
75938;BME280;64615;32.062;34.834;2023-07-13T04:50:59;100608.38;;;28.27;62.15
75938;BME280;64615;32.062;34.834;2023-07-13T04:53:25;100617.09;;;28.29;61.90
75938;BME280;64615;32.062;34.834;2023-07-13T04:55:52;100628.56;;;28.31;61.93
75938;BME280;64615;32.062;34.834;2023-07-13T04:58:18;100632.63;;;28.34;61.87
75938;BME280;64615;32.062;34.834;2023-07-13T05:00:44;100636.19;;;28.34;61.84
75938;BME280;64615;32.062;34.834;2023-07-13T05:03:09;100633.16;;;28.36;61.96
75938;BME280;64615;32.062;34.834;2023-07-13T05:05:35;100623.03;;;28.36;61.83
75938;BME280;64615;32.062;34.834;2023-07-13T05:08:01;100629.81;;;28.39;61.68
75938;BME280;64615;32.062;34.834;2023-07-13T05:10:27;100641.88;;;28.38;61.73
75938;BME280;64615;32.062;34.834;2023-07-13T05:12:52;100642.91;;;28.42;61.63
75938;BME280;64615;32.062;34.834;2023-07-13T05:15:21;100636.31;;;28.43;61.41
75938;BME280;64615;32.062;34.834;2023-07-13T05:17:48;100631.63;;;28.43;61.48
75938;BME280;64615;32.062;34.834;2023-07-13T05:20:14;100637.94;;;28.44;61.78
75938;BME280;64615;32.062;34.834;2023-07-13T05:22:41;100632.97;;;28.46;61.43
75938;BME280;64615;32.062;34.834;2023-07-13T05:25:07;100642.00;;;28.46;61.67
75938;BME280;64615;32.062;34.834;2023-07-13T05:27:34;100638.66;;;28.49;61.36
75938;BME280;64615;32.062;34.834;2023-07-13T05:30:01;100639.19;;;28.51;61.42
75938;BME280;64615;32.062;34.834;2023-07-13T05:32:26;100630.97;;;28.51;61.60
75938;BME280;64615;32.062;34.834;2023-07-13T05:34:52;100636.94;;;28.53;61.89
75938;BME280;64615;32.062;34.834;2023-07-13T05:37:18;100640.50;;;28.54;61.41
75938;BME280;64615;32.062;34.834;2023-07-13T05:39:43;100641.59;;;28.53;61.41
75938;BME280;64615;32.062;34.834;2023-07-13T05:42:09;100632.28;;;28.54;61.24
75938;BME280;64615;32.062;34.834;2023-07-13T05:44:35;100625.41;;;28.56;61.48
75938;BME280;64615;32.062;34.834;2023-07-13T05:47:00;100627.31;;;28.56;61.68
75938;BME280;64615;32.062;34.834;2023-07-13T05:49:26;100637.09;;;28.62;61.50
75938;BME280;64615;32.062;34.834;2023-07-13T05:51:52;100623.38;;;28.62;61.24
75938;BME280;64615;32.062;34.834;2023-07-13T05:54:18;100623.69;;;28.60;61.23
75938;BME280;64615;32.062;34.834;2023-07-13T05:56:44;100617.69;;;28.58;61.58
75938;BME280;64615;32.062;34.834;2023-07-13T05:59:09;100608.97;;;28.56;61.23
75938;BME280;64615;32.062;34.834;2023-07-13T06:01:35;100616.88;;;28.58;61.40
75938;BME280;64615;32.062;34.834;2023-07-13T06:04:01;100631.38;;;28.58;61.36
75938;BME280;64615;32.062;34.834;2023-07-13T06:06:26;100631.38;;;28.58;61.58
75938;BME280;64615;32.062;34.834;2023-07-13T06:08:52;100620.94;;;28.60;61.45
75938;BME280;64615;32.062;34.834;2023-07-13T06:11:21;100620.94;;;28.60;61.40
75938;BME280;64615;32.062;34.834;2023-07-13T06:13:47;100618.50;;;28.59;61.35
75938;BME280;64615;32.062;34.834;2023-07-13T06:16:14;100621.56;;;28.57;61.44
75938;BME280;64615;32.062;34.834;2023-07-13T06:18:40;100627.81;;;28.58;61.26
75938;BME280;64615;32.062;34.834;2023-07-13T06:21:12;100622.34;;;28.58;61.71
75938;BME280;64615;32.062;34.834;2023-07-13T06:23:38;100616.88;;;28.58;61.38
75938;BME280;64615;32.062;34.834;2023-07-13T06:26:05;100626.72;;;28.59;61.24
75938;BME280;64615;32.062;34.834;2023-07-13T06:28:32;100629.16;;;28.60;61.55
75938;BME280;64615;32.062;34.834;2023-07-13T06:30:58;100628.34;;;28.60;61.45
75938;BME280;64615;32.062;34.834;2023-07-13T06:33:24;100625.59;;;28.60;61.65
75938;BME280;64615;32.062;34.834;2023-07-13T06:35:50;100620.13;;;28.60;61.44
75938;BME280;64615;32.062;34.834;2023-07-13T06:38:16;100626.22;;;28.57;61.59
75938;BME280;64615;32.062;34.834;2023-07-13T06:40:42;100633.81;;;28.60;61.46
75938;BME280;64615;32.062;34.834;2023-07-13T06:43:07;100640.13;;;28.60;61.44
75938;BME280;64615;32.062;34.834;2023-07-13T06:45:41;100638.19;;;28.61;61.03
75938;BME280;64615;32.062;34.834;2023-07-13T06:48:07;100630.47;;;28.63;61.19
75938;BME280;64615;32.062;34.834;2023-07-13T06:50:33;100629.97;;;28.61;61.54
75938;BME280;64615;32.062;34.834;2023-07-13T06:52:59;100630.25;;;28.59;61.53
75938;BME280;64615;32.062;34.834;2023-07-13T06:55:25;100638.47;;;28.59;61.10
75938;BME280;64615;32.062;34.834;2023-07-13T06:57:51;100638.19;;;28.61;61.20
75938;BME280;64615;32.062;34.834;2023-07-13T07:00:17;100627.72;;;28.63;61.09
75938;BME280;64615;32.062;34.834;2023-07-13T07:02:43;100630.47;;;28.63;61.15
75938;BME280;64615;32.062;34.834;2023-07-13T07:05:08;100634.34;;;28.62;61.41
75938;BME280;64615;32.062;34.834;2023-07-13T07:07:34;100642.03;;;28.60;61.32
75938;BME280;64615;32.062;34.834;2023-07-13T07:10:00;100643.97;;;28.59;61.34
75938;BME280;64615;32.062;34.834;2023-07-13T07:12:25;100637.66;;;28.59;61.44
75938;BME280;64615;32.062;34.834;2023-07-13T07:14:51;100633.81;;;28.60;61.49
75938;BME280;64615;32.062;34.834;2023-07-13T07:17:16;100642.84;;;28.60;61.54
75938;BME280;64615;32.062;34.834;2023-07-13T07:19:42;100636.84;;;28.58;61.39
75938;BME280;64615;32.062;34.834;2023-07-13T07:22:08;100640.41;;;28.59;61.48
75938;BME280;64615;32.062;34.834;2023-07-13T07:24:33;100634.94;;;28.59;61.62
75938;BME280;64615;32.062;34.834;2023-07-13T07:26:59;100634.13;;;28.58;61.05
75938;BME280;64615;32.062;34.834;2023-07-13T07:29:25;100642.84;;;28.60;61.46
75938;BME280;64615;32.062;34.834;2023-07-13T07:31:53;100636.84;;;28.58;61.58
75938;BME280;64615;32.062;34.834;2023-07-13T07:34:18;100628.13;;;28.56;61.57
75938;BME280;64615;32.062;34.834;2023-07-13T07:36:44;100636.03;;;28.58;61.46
75938;BME280;64615;32.062;34.834;2023-07-13T07:39:10;100634.94;;;28.59;61.61
75938;BME280;64615;32.062;34.834;2023-07-13T07:41:35;100632.72;;;28.61;61.34
75938;BME280;64615;32.062;34.834;2023-07-13T07:44:01;100632.72;;;28.61;61.50
75938;BME280;64615;32.062;34.834;2023-07-13T07:46:26;100628.53;;;28.63;61.60
75938;BME280;64615;32.062;34.834;2023-07-13T07:48:53;100625.50;;;28.65;61.59
75938;BME280;64615;32.062;34.834;2023-07-13T07:51:18;100627.72;;;28.63;61.74
75938;BME280;64615;32.062;34.834;2023-07-13T07:53:44;100624.19;;;28.62;61.95
75938;BME280;64615;32.062;34.834;2023-07-13T07:56:10;100623.38;;;28.62;61.97
75938;BME280;64615;32.062;34.834;2023-07-13T07:58:35;100633.00;;;28.59;61.74
75938;BME280;64615;32.062;34.834;2023-07-13T08:01:03;100627.53;;;28.59;61.70
75938;BME280;64615;32.062;34.834;2023-07-13T08:03:29;100623.97;;;28.59;62.16
75938;BME280;64615;32.062;34.834;2023-07-13T08:05:54;100624.78;;;28.59;62.04
75938;BME280;64615;32.062;34.834;2023-07-13T08:08:20;100626.72;;;28.59;61.76
75938;BME280;64615;32.062;34.834;2023-07-13T08:10:45;100625.59;;;28.60;62.19
75938;BME280;64615;32.062;34.834;2023-07-13T08:13:11;100616.88;;;28.58;62.22
75938;BME280;64615;32.062;34.834;2023-07-13T08:15:37;100630.56;;;28.58;62.28
75938;BME280;64615;32.062;34.834;2023-07-13T08:18:02;100616.06;;;28.57;62.05
75938;BME280;64615;32.062;34.834;2023-07-13T08:20:28;100618.50;;;28.59;62.11
75938;BME280;64615;32.062;34.834;2023-07-13T08:22:54;100630.56;;;28.58;62.19
75938;BME280;64615;32.062;34.834;2023-07-13T08:25:19;100625.41;;;28.56;62.26
75938;BME280;64615;32.062;34.834;2023-07-13T08:27:46;100618.28;;;28.55;62.20
75938;BME280;64615;32.062;34.834;2023-07-13T08:30:11;100614.44;;;28.56;62.42
75938;BME280;64615;32.062;34.834;2023-07-13T08:32:37;100614.44;;;28.56;62.26
75938;BME280;64615;32.062;34.834;2023-07-13T08:35:04;100610.59;;;28.57;62.02
75938;BME280;64615;32.062;34.834;2023-07-13T08:37:30;100618.28;;;28.55;62.40
75938;BME280;64615;32.062;34.834;2023-07-13T08:39:55;100614.13;;;28.58;62.34
75938;BME280;64615;32.062;34.834;2023-07-13T08:45:21;100611.72;;;28.56;62.14
75938;BME280;64615;32.062;34.834;2023-07-13T08:48:02;100613.91;;;28.54;62.18
75938;BME280;64615;32.062;34.834;2023-07-13T08:50:34;100613.63;;;28.56;62.37
75938;BME280;64615;32.062;34.834;2023-07-13T08:53:02;100607.34;;;28.55;62.23
75938;BME280;64615;32.062;34.834;2023-07-13T08:55:33;100605.72;;;28.54;62.58
75938;BME280;64615;32.062;34.834;2023-07-13T08:58:09;100609.56;;;28.53;62.21
75938;BME280;64615;32.062;34.834;2023-07-13T09:00:48;100609.88;;;28.52;62.41
75938;BME280;64615;32.062;34.834;2023-07-13T09:03:27;100612.28;;;28.53;62.63
75938;BME280;64615;32.062;34.834;2023-07-13T09:05:59;100608.75;;;28.53;62.33
75938;BME280;64615;32.062;34.834;2023-07-13T09:09:00;100603.25;;;28.53;62.38
75938;BME280;64615;32.062;34.834;2023-07-13T09:11:42;100599.72;;;28.52;62.31
75938;BME280;64615;32.062;34.834;2023-07-13T09:16:53;100605.22;;;28.52;62.34
75938;BME280;64615;32.062;34.834;2023-07-13T09:19:24;100606.00;;;28.53;62.49
75938;BME280;64615;32.062;34.834;2023-07-13T09:21:52;100595.03;;;28.53;62.44
75938;BME280;64615;32.062;34.834;2023-07-13T09:24:41;100602.78;;;28.51;62.09
75938;BME280;64615;32.062;34.834;2023-07-13T09:30:41;100590.19;;;28.50;62.47
75938;BME280;64615;32.062;34.834;2023-07-13T09:33:10;100593.94;;;28.54;62.49
75938;BME280;64615;32.062;34.834;2023-07-13T09:35:36;100600.84;;;28.51;62.23
75938;BME280;64615;32.062;34.834;2023-07-13T09:38:22;100596.75;;;28.49;62.38
75938;BME280;64615;32.062;34.834;2023-07-13T09:43:26;100594.03;;;28.49;62.13
75938;BME280;64615;32.062;34.834;2023-07-13T09:45:54;100598.41;;;28.50;62.17
75938;BME280;64615;32.062;34.834;2023-07-13T09:48:20;100586.91;;;28.48;62.68
75938;BME280;64615;32.062;34.834;2023-07-13T09:50:45;100583.38;;;28.47;62.43
75938;BME280;64615;32.062;34.834;2023-07-13T09:53:17;100571.63;;;28.47;62.54
75938;BME280;64615;32.062;34.834;2023-07-13T09:55:44;100582.59;;;28.47;62.54
75938;BME280;64615;32.062;34.834;2023-07-13T09:58:14;100575.47;;;28.46;62.34
75938;BME280;64615;32.062;34.834;2023-07-13T10:00:42;100572.75;;;28.46;62.57
75938;BME280;64615;32.062;34.834;2023-07-13T10:03:30;100568.88;;;28.47;62.51
75938;BME280;64615;32.062;34.834;2023-07-13T10:06:14;100564.53;;;28.46;62.33
75938;BME280;64615;32.062;34.834;2023-07-13T10:08:40;100565.34;;;28.46;62.53
75938;BME280;64615;32.062;34.834;2023-07-13T10:11:12;100569.47;;;28.44;62.34
75938;BME280;64615;32.062;34.834;2023-07-13T10:13:46;100558.03;;;28.42;62.34
75938;BME280;64615;32.062;34.834;2023-07-13T10:16:14;100557.72;;;28.43;62.21
75938;BME280;64615;32.062;34.834;2023-07-13T10:18:49;100556.06;;;28.42;62.34
75938;BME280;64615;32.062;34.834;2023-07-13T10:21:25;100554.97;;;28.43;62.32
75938;BME280;64615;32.062;34.834;2023-07-13T10:24:15;100544.63;;;28.40;62.64
75938;BME280;64615;32.062;34.834;2023-07-13T10:26:48;100547.38;;;28.40;62.31
75938;BME280;64615;32.062;34.834;2023-07-13T10:29:16;100535.31;;;28.41;62.47
75938;BME280;64615;32.062;34.834;2023-07-13T10:31:45;100539.44;;;28.39;62.39
75938;BME280;64615;32.062;34.834;2023-07-13T10:34:11;100535.06;;;28.38;62.48
75938;BME280;64615;32.062;34.834;2023-07-13T10:36:46;100526.88;;;28.38;62.63
75938;BME280;64615;32.062;34.834;2023-07-13T10:39:14;100515.09;;;28.37;62.53
75938;BME280;64615;32.062;34.834;2023-07-13T10:41:42;100512.34;;;28.37;62.53
75938;BME280;64615;32.062;34.834;2023-07-13T10:44:18;100521.72;;;28.36;62.39
75938;BME280;64615;32.062;34.834;2023-07-13T10:46:45;100524.44;;;28.36;62.53
75938;BME280;64615;32.062;34.834;2023-07-13T10:49:11;100515.41;;;28.36;62.36
75938;BME280;64615;32.062;34.834;2023-07-13T10:51:38;100508.03;;;28.36;62.54
75938;BME280;64615;32.062;34.834;2023-07-13T10:54:19;100511.06;;;28.35;62.46
75938;BME280;64615;32.062;34.834;2023-07-13T10:56:50;100506.69;;;28.34;62.47
75938;BME280;64615;32.062;34.834;2023-07-13T10:59:20;100507.50;;;28.34;62.40
75938;BME280;64615;32.062;34.834;2023-07-13T11:04:20;100488.03;;;28.36;62.04
75938;BME280;64615;32.062;34.834;2023-07-13T11:06:48;100491.88;;;28.35;62.39
75938;BME280;64615;32.062;34.834;2023-07-13T11:09:39;100472.72;;;28.35;62.18
75938;BME280;64615;32.062;34.834;2023-07-13T11:12:55;100484.97;;;28.37;61.86
75938;BME280;64615;32.062;34.834;2023-07-13T11:19:53;100479.22;;;28.39;61.92
75938;BME280;64615;32.062;34.834;2023-07-13T11:23:28;100477.59;;;28.38;62.24
75938;BME280;64615;32.062;34.834;2023-07-13T11:25:29;100467.97;;;28.40;61.83
75938;BME280;64615;32.062;34.834;2023-07-13T11:35:58;100452.94;;;28.38;62.09
75938;BME280;64615;32.062;34.834;2023-07-13T11:40:59;100452.44;;;28.36;62.21
75938;BME280;64615;32.062;34.834;2023-07-13T11:43:28;100449.38;;;28.37;61.76
75938;BME280;64615;32.062;34.834;2023-07-13T11:45:54;100452.94;;;28.38;62.06
75938;BME280;64615;32.062;34.834;2023-07-13T11:48:28;100449.00;;;28.44;61.86
75938;BME280;64615;32.062;34.834;2023-07-13T11:51:05;100449.00;;;28.44;61.69
75938;BME280;64615;32.062;34.834;2023-07-13T11:53:38;100446.53;;;28.42;61.51
75938;BME280;64615;32.062;34.834;2023-07-13T11:56:05;100444.94;;;28.41;61.79
75938;BME280;64615;32.062;34.834;2023-07-13T11:58:32;100439.78;;;28.40;61.57
75938;BME280;64615;32.062;34.834;2023-07-13T12:00:59;100432.66;;;28.39;61.83
75938;BME280;64615;32.062;34.834;2023-07-13T12:03:27;100442.22;;;28.41;61.68
75938;BME280;64615;32.062;34.834;2023-07-13T12:06:02;100423.63;;;28.38;61.72
75938;BME280;64615;32.062;34.834;2023-07-13T12:08:28;100421.72;;;28.39;61.66
75938;BME280;64615;32.062;34.834;2023-07-13T12:11:00;100419.97;;;28.43;60.98
75938;BME280;64615;32.062;34.834;2023-07-13T12:13:35;100420.91;;;28.38;61.65
75938;BME280;64615;32.062;34.834;2023-07-13T12:16:01;100411.06;;;28.37;61.75
75938;BME280;64615;32.062;34.834;2023-07-13T12:18:31;100411.38;;;28.36;61.93
75938;BME280;64615;32.062;34.834;2023-07-13T12:20:59;100408.66;;;28.36;61.75
75938;BME280;64615;32.062;34.834;2023-07-13T12:23:31;100414.13;;;28.36;61.72
75938;BME280;64615;32.062;34.834;2023-07-13T12:26:00;100398.81;;;28.35;61.86
75938;BME280;64615;32.062;34.834;2023-07-13T12:28:37;100407.84;;;28.35;61.44
75938;BME280;64615;32.062;34.834;2023-07-13T12:31:07;100407.00;;;28.35;61.73
75938;BME280;64615;32.062;34.834;2023-07-13T12:33:33;100411.06;;;28.37;61.34
75938;BME280;64615;32.062;34.834;2023-07-13T12:36:02;100407.84;;;28.35;61.52
75938;BME280;64615;32.062;34.834;2023-07-13T12:38:30;100390.28;;;28.36;61.72
75938;BME280;64615;32.062;34.834;2023-07-13T12:40:56;100394.03;;;28.40;58.54
75938;BME280;64615;32.062;34.834;2023-07-13T12:43:23;100401.41;;;28.53;58.35
75938;BME280;64615;32.062;34.834;2023-07-13T12:48:22;100382.13;;;28.58;57.27
75938;BME280;64615;32.062;34.834;2023-07-13T12:50:49;100387.50;;;28.63;56.35
75938;BME280;64615;32.062;34.834;2023-07-13T12:53:23;100385.16;;;28.71;55.17
75938;BME280;64615;32.062;34.834;2023-07-13T12:55:55;100388.44;;;28.73;55.09
75938;BME280;64615;32.062;34.834;2023-07-13T12:58:31;100381.53;;;28.75;52.80
75938;BME280;64615;32.062;34.834;2023-07-13T13:00:59;100385.09;;;28.76;53.03
75938;BME280;64615;32.062;34.834;2023-07-13T13:03:32;100372.81;;;28.73;53.65
75938;BME280;64615;32.062;34.834;2023-07-13T13:08:48;100358.59;;;28.71;54.23
75938;BME280;64615;32.062;34.834;2023-07-13T13:11:15;100351.47;;;28.70;52.48
75938;BME280;64615;32.062;34.834;2023-07-13T13:13:42;100365.00;;;28.67;53.23
75938;BME280;64615;32.062;34.834;2023-07-13T13:16:19;100368.66;;;28.76;48.97
75938;BME280;64615;32.062;34.834;2023-07-13T13:18:46;100365.91;;;28.76;49.48
75938;BME280;64615;32.062;34.834;2023-07-13T13:21:12;100363.69;;;28.78;48.54
75938;BME280;64615;32.062;34.834;2023-07-13T13:23:37;100352.91;;;28.81;47.37